Wallisville, Texas
Current Conditions -  °F | °C
As of 5:50 AM on Sunday 25 Jan 2015 (Local Time) from KEFD Reporting Station
Few Clouds Few Clouds  
Wind Chill: 41°   Ceiling: Unl
Heat Index: 45°   Visibility: 10mi
Dew Point: 41°   Wind: 7mph
Humidity: 87%   Direction: 220°SW
Pressure: 30.05"   Gusts: NA
Location:  29.84°N, 94.74°W
Report Text: KEFD 251150Z 22006KT 10SM FEW250 07/05 A3005
Loading
Personal Weather Stations






























Interactive Weather Map New forecast layout! Learn more

10-Day Weather Forecast

Advertisements
Track Severe Weather on mobile